createdAt,value
2019-06-15T00:00:34.701Z,6.60
2019-06-15T00:03:38.544Z,6.27
2019-06-15T00:06:42.638Z,6.63
2019-06-15T00:09:46.979Z,6.33
2019-06-15T00:12:51.132Z,6.27
2019-06-15T00:15:55.231Z,6.17
2019-06-15T00:18:59.637Z,6.03
2019-06-15T00:22:03.800Z,6.43
2019-06-15T00:25:08.384Z,6.20
2019-06-15T00:28:12.637Z,5.63
2019-06-15T00:31:17.213Z,6.97
2019-06-15T00:34:21.048Z,7.07
2019-06-15T00:37:25.166Z,7.13
2019-06-15T00:40:29.197Z,6.70
2019-06-15T00:43:33.195Z,5.77
2019-06-15T00:46:37.404Z,5.60
2019-06-15T00:49:41.316Z,5.63
2019-06-15T00:52:45.169Z,5.07
2019-06-15T00:55:49.096Z,5.50
2019-06-15T00:58:53.309Z,5.10
2019-06-15T01:01:57.190Z,5.33
2019-06-15T01:05:01.382Z,5.10
2019-06-15T01:08:05.410Z,4.97
2019-06-15T01:11:09.337Z,5.10
2019-06-15T01:14:14.635Z,5.07
2019-06-15T01:17:18.618Z,5.20
2019-06-15T01:20:23.201Z,5.50
2019-06-15T01:23:27.423Z,5.50
2019-06-15T01:26:31.348Z,5.73
2019-06-15T01:29:35.558Z,5.93
2019-06-15T01:32:40.149Z,6.87
2019-06-15T01:35:44.408Z,6.63
2019-06-15T01:38:48.730Z,7.67
2019-06-15T01:41:53.068Z,7.27
2019-06-15T01:44:57.600Z,7.17
2019-06-15T01:48:02.112Z,7.67
2019-06-15T01:51:06.175Z,7.07
2019-06-15T01:54:10.357Z,7.13
2019-06-15T01:57:14.541Z,8.93
2019-06-15T02:00:20.454Z,10.30
2019-06-15T02:03:24.943Z,11.23
2019-06-15T02:06:29.171Z,11.60
2019-06-15T02:09:33.026Z,12.30
2019-06-15T02:12:37.305Z,12.33
2019-06-15T02:15:41.458Z,13.47
2019-06-15T02:18:45.683Z,14.93
2019-06-15T02:21:49.607Z,14.30
2019-06-15T02:24:53.938Z,14.37
2019-06-15T02:27:58.173Z,15.37
2019-06-15T02:31:02.344Z,15.20
2019-06-15T02:34:06.543Z,16.00
2019-06-15T02:37:10.782Z,16.03
2019-06-15T02:40:15.318Z,9.63
2019-06-15T02:43:19.532Z,8.23
2019-06-15T02:46:26.265Z,7.53
2019-06-15T02:49:29.381Z,7.10
2019-06-15T02:52:33.753Z,6.37
2019-06-15T02:55:49.782Z,5.77
2019-06-15T02:58:44.194Z,5.63
2019-06-15T03:01:48.518Z,5.77
2019-06-15T03:04:52.382Z,5.30
2019-06-15T03:07:56.384Z,5.23
2019-06-15T03:11:00.648Z,4.87
2019-06-15T03:14:05.521Z,5.40
2019-06-15T03:17:09.614Z,5.63
2019-06-15T03:20:13.629Z,6.23
2019-06-15T03:23:17.804Z,6.60
2019-06-15T03:26:21.731Z,6.50
2019-06-15T03:29:25.667Z,5.27
2019-06-15T03:32:29.528Z,5.30
2019-06-15T03:35:33.443Z,5.30
2019-06-15T03:38:37.621Z,5.13
2019-06-15T03:41:41.858Z,5.00
2019-06-15T03:44:45.968Z,5.30
2019-06-15T03:47:50.311Z,4.97
2019-06-15T03:50:54.226Z,4.93
2019-06-15T03:53:58.418Z,5.17
2019-06-15T03:57:02.834Z,5.53
2019-06-15T04:00:22.548Z,5.80
2019-06-15T04:03:26.490Z,4.47
2019-06-15T04:06:30.777Z,5.10
2019-06-15T04:09:34.947Z,4.63
2019-06-15T04:12:38.850Z,5.10
2019-06-15T04:15:43.322Z,5.07
2019-06-15T04:18:47.176Z,4.93
2019-06-15T04:21:51.045Z,8.77
2019-06-15T04:24:55.145Z,7.20
2019-06-15T04:27:59.086Z,7.63
2019-06-15T04:31:03.202Z,7.83
2019-06-15T04:34:07.292Z,8.63
2019-06-15T04:37:11.536Z,7.30
2019-06-15T04:40:17.026Z,5.20
2019-06-15T04:43:21.305Z,4.57
2019-06-15T04:46:25.448Z,4.50
2019-06-15T04:49:29.644Z,4.63
2019-06-15T04:52:33.970Z,4.73
2019-06-15T04:55:38.063Z,4.77
2019-06-15T04:58:41.927Z,4.90
2019-06-15T05:01:46.118Z,4.63
2019-06-15T05:04:50.542Z,4.43
2019-06-15T05:07:54.480Z,4.07
2019-06-15T05:10:59.990Z,4.23
2019-06-15T05:14:04.422Z,3.60
2019-06-15T05:17:08.422Z,3.37
2019-06-15T05:20:13.248Z,3.10
2019-06-15T05:23:17.404Z,3.27
2019-06-15T05:26:21.483Z,2.90
2019-06-15T05:29:25.325Z,3.30
2019-06-15T05:32:29.189Z,3.00
2019-06-15T05:35:33.341Z,2.97
2019-06-15T05:38:37.550Z,2.90
2019-06-15T05:41:41.615Z,3.20
2019-06-15T05:44:45.711Z,3.53
2019-06-15T05:47:50.027Z,3.40
2019-06-15T05:50:54.461Z,3.40
2019-06-15T05:53:58.679Z,3.30
2019-06-15T05:57:02.934Z,3.17
2019-06-15T06:00:07.754Z,3.30
2019-06-15T06:03:12.260Z,3.43
2019-06-15T06:06:16.247Z,3.10
2019-06-15T06:09:20.829Z,3.57
2019-06-15T06:12:24.748Z,3.30
2019-06-15T06:15:28.679Z,3.27
2019-06-15T06:18:32.886Z,3.00
2019-06-15T06:21:37.072Z,2.70
2019-06-15T06:24:41.433Z,2.70
2019-06-15T06:27:45.950Z,2.60
2019-06-15T06:30:50.170Z,2.90
2019-06-15T06:33:54.100Z,2.87
2019-06-15T06:36:58.480Z,2.70
2019-06-15T06:40:03.216Z,2.17
2019-06-15T06:43:07.223Z,2.27
2019-06-15T06:46:11.450Z,2.07
2019-06-15T06:49:15.881Z,2.50
2019-06-15T06:52:20.439Z,2.10
2019-06-15T06:55:24.419Z,2.00
2019-06-15T06:58:28.319Z,2.60
2019-06-15T07:01:32.379Z,2.10
2019-06-15T07:04:36.597Z,2.30
2019-06-15T07:07:41.301Z,2.10
2019-06-15T07:10:45.257Z,2.27
2019-06-15T07:13:49.208Z,2.43
2019-06-15T07:16:53.157Z,2.70
2019-06-15T07:19:57.079Z,2.30
2019-06-15T07:23:01.075Z,2.77
2019-06-15T07:26:05.232Z,3.00
2019-06-15T07:29:09.130Z,2.57
2019-06-15T07:32:13.243Z,2.30
2019-06-15T07:35:17.495Z,2.47
2019-06-15T07:38:21.419Z,2.20
2019-06-15T07:41:25.287Z,2.47
2019-06-15T07:44:29.593Z,2.37
2019-06-15T07:47:33.628Z,1.80
2019-06-15T07:50:37.534Z,1.63
2019-06-15T07:53:41.317Z,1.80
2019-06-15T07:56:45.915Z,1.90
2019-06-15T07:59:50.206Z,1.83
2019-06-15T08:02:54.090Z,1.70
2019-06-15T08:05:58.641Z,2.13
2019-06-15T08:09:03.830Z,2.23
2019-06-15T08:12:07.736Z,2.03
2019-06-15T08:15:12.474Z,2.30
2019-06-15T08:18:16.398Z,2.50
2019-06-15T08:21:20.643Z,2.27
2019-06-15T08:24:24.596Z,2.50
2019-06-15T08:27:28.784Z,2.27
2019-06-15T08:30:41.238Z,2.40
2019-06-15T08:33:45.511Z,2.70
2019-06-15T08:36:49.746Z,3.33
2019-06-15T08:39:53.668Z,2.63
2019-06-15T08:42:57.968Z,2.90
2019-06-15T08:46:02.058Z,2.90
2019-06-15T08:49:07.151Z,2.87
2019-06-15T08:52:11.474Z,3.00
2019-06-15T08:55:15.531Z,3.40
2019-06-15T08:58:19.742Z,3.03
2019-06-15T09:01:23.713Z,2.90
2019-06-15T09:04:27.847Z,2.83
2019-06-15T09:07:31.688Z,2.90
2019-06-15T09:10:35.554Z,3.03
2019-06-15T09:13:39.663Z,2.83
2019-06-15T09:16:44.431Z,3.50
2019-06-15T09:19:48.238Z,3.20
2019-06-15T09:22:52.424Z,2.90
2019-06-15T09:25:56.426Z,2.07
2019-06-15T09:29:10.761Z,2.40
2019-06-15T09:32:06.836Z,2.00
2019-06-15T09:35:11.337Z,1.80
2019-06-15T09:38:15.884Z,1.50
2019-06-15T09:41:20.612Z,1.43
2019-06-15T09:44:24.552Z,1.40
2019-06-15T09:47:28.774Z,1.40
2019-06-15T09:50:32.752Z,1.47
2019-06-15T09:53:37.904Z,1.40
2019-06-15T09:56:41.858Z,1.37
2019-06-15T09:59:45.749Z,1.73
2019-06-15T10:02:49.746Z,1.53
2019-06-15T10:05:53.926Z,1.40
2019-06-15T10:08:57.786Z,1.30
2019-06-15T10:12:02.525Z,1.50
2019-06-15T10:15:07.753Z,1.50
2019-06-15T10:18:11.819Z,1.57
2019-06-15T10:21:15.815Z,1.20
2019-06-15T10:24:19.702Z,1.30
2019-06-15T10:27:24.123Z,1.47
2019-06-15T10:30:28.244Z,1.50
2019-06-15T10:33:32.176Z,1.30
2019-06-15T10:36:36.107Z,1.20
2019-06-15T10:39:40.018Z,1.30
2019-06-15T10:42:44.080Z,1.10
2019-06-15T10:45:48.192Z,1.13
2019-06-15T10:48:55.594Z,1.10
2019-06-15T10:51:58.912Z,1.10
2019-06-15T10:55:03.144Z,1.30
2019-06-15T10:58:07.884Z,1.50
2019-06-15T11:01:11.812Z,1.27
2019-06-15T11:04:15.812Z,1.27
2019-06-15T11:07:19.993Z,1.30
2019-06-15T11:11:07.887Z,1.23
2019-06-15T11:14:12.492Z,1.47
2019-06-15T11:17:16.938Z,1.10
2019-06-15T11:20:21.542Z,1.00
2019-06-15T11:23:25.548Z,1.10
2019-06-15T11:26:29.676Z,1.10
2019-06-15T11:29:33.605Z,1.20
2019-06-15T11:32:37.606Z,1.10
2019-06-15T11:35:42.902Z,1.10
2019-06-15T11:38:46.780Z,1.40
2019-06-15T11:41:51.082Z,1.70
2019-06-15T11:44:55.170Z,1.43
2019-06-15T11:47:59.350Z,1.10
2019-06-15T11:51:03.352Z,1.00
2019-06-15T11:54:07.355Z,1.10
2019-06-15T11:57:11.313Z,1.10
2019-06-15T12:00:30.455Z,0.90
2019-06-15T12:03:21.478Z,1.10
2019-06-15T12:06:25.459Z,0.87
2019-06-15T12:09:29.389Z,1.10
2019-06-15T12:12:33.405Z,1.20
2019-06-15T12:15:37.331Z,1.40
2019-06-15T12:18:42.259Z,1.00
2019-06-15T12:21:46.466Z,1.60
2019-06-15T12:24:50.401Z,1.30
2019-06-15T12:27:54.707Z,1.30
2019-06-15T12:30:58.554Z,1.07
2019-06-15T12:34:03.143Z,1.30
2019-06-15T12:37:07.575Z,1.30
2019-06-15T12:40:11.679Z,1.00
2019-06-15T12:43:16.309Z,1.10
2019-06-15T12:46:20.418Z,1.20
2019-06-15T12:49:24.540Z,1.40
2019-06-15T12:52:28.665Z,1.10
2019-06-15T12:55:32.827Z,1.33
2019-06-15T12:58:37.514Z,1.30
2019-06-15T13:01:41.530Z,1.40
2019-06-15T13:04:46.052Z,1.33
2019-06-15T13:07:50.910Z,1.40
2019-06-15T13:10:55.290Z,1.23
2019-06-15T13:13:59.534Z,1.30
2019-06-15T13:17:03.778Z,0.93
2019-06-15T13:20:09.159Z,1.00
2019-06-15T13:23:13.401Z,0.80
2019-06-15T13:26:17.352Z,1.10
2019-06-15T13:29:21.664Z,0.90
2019-06-15T13:32:25.993Z,0.80
2019-06-15T13:35:29.990Z,0.87
2019-06-15T13:38:34.013Z,0.90
2019-06-15T13:41:38.012Z,0.97
2019-06-15T13:44:41.966Z,3.77
2019-06-15T13:47:45.957Z,1.00
2019-06-15T13:50:49.878Z,1.10
2019-06-15T13:53:53.741Z,0.83
2019-06-15T13:56:57.909Z,0.80
2019-06-15T14:00:02.538Z,0.80
2019-06-15T14:03:06.479Z,1.00
2019-06-15T14:06:10.450Z,0.80
2019-06-15T14:09:14.395Z,0.90
2019-06-15T14:12:18.696Z,0.80
2019-06-15T14:15:22.647Z,0.80
2019-06-15T14:18:27.098Z,1.07
2019-06-15T14:21:31.971Z,1.03
2019-06-15T14:24:35.910Z,0.80
2019-06-15T14:27:39.928Z,1.00
2019-06-15T14:30:43.781Z,0.80
2019-06-15T14:33:48.233Z,0.80
2019-06-15T14:36:52.659Z,0.90
2019-06-15T14:39:56.871Z,1.10
2019-06-15T14:43:00.837Z,0.90
2019-06-15T14:46:04.855Z,0.70
2019-06-15T14:49:09.103Z,0.97
2019-06-15T14:52:13.097Z,0.90
2019-06-15T14:55:18.293Z,1.10
2019-06-15T14:58:22.888Z,0.87
2019-06-15T15:01:26.876Z,0.87
2019-06-15T15:04:30.791Z,1.00
2019-06-15T15:07:36.825Z,1.00
2019-06-15T15:10:41.314Z,0.80
2019-06-15T15:13:47.103Z,1.10
2019-06-15T15:16:51.465Z,1.00
2019-06-15T15:19:57.305Z,1.03
2019-06-15T15:23:01.176Z,1.40
2019-06-15T15:26:06.623Z,1.00
2019-06-15T15:29:11.133Z,1.20
2019-06-15T15:32:25.024Z,0.90
2019-06-15T15:35:20.909Z,0.93
2019-06-15T15:38:24.858Z,0.90
2019-06-15T15:41:29.022Z,0.80
2019-06-15T15:44:33.118Z,1.00
2019-06-15T15:47:37.064Z,1.00
2019-06-15T15:50:41.025Z,0.80
2019-06-15T15:53:46.657Z,0.90
2019-06-15T15:56:50.963Z,0.90
2019-06-15T15:59:56.329Z,0.80
2019-06-15T16:03:00.636Z,0.90
2019-06-15T16:06:04.963Z,0.80
2019-06-15T16:09:09.946Z,0.97
2019-06-15T16:12:14.222Z,1.03
2019-06-15T16:15:18.298Z,0.90
2019-06-15T16:18:22.312Z,0.90
2019-06-15T16:21:26.274Z,0.83
2019-06-15T16:24:30.175Z,0.93
2019-06-15T16:27:36.877Z,0.93
2019-06-15T16:31:01.590Z,1.07
2019-06-15T16:33:46.583Z,1.10
2019-06-15T16:36:51.056Z,1.10
2019-06-15T16:39:54.931Z,1.00
2019-06-15T16:42:58.852Z,1.27
2019-06-15T16:46:03.120Z,1.10
2019-06-15T16:49:07.120Z,1.10
2019-06-15T16:52:11.061Z,1.20
2019-06-15T16:55:16.840Z,1.30
2019-06-15T16:58:21.129Z,1.20
2019-06-15T17:01:27.490Z,1.30
2019-06-15T17:04:31.561Z,1.10
2019-06-15T17:07:36.776Z,1.30
2019-06-15T17:10:51.630Z,1.33
2019-06-15T17:13:56.289Z,1.03
2019-06-15T17:17:00.724Z,1.00
2019-06-15T17:20:06.458Z,1.00
2019-06-15T17:23:10.775Z,1.10
2019-06-15T17:26:16.877Z,1.30
2019-06-15T17:29:21.055Z,1.10
2019-06-15T17:32:26.246Z,1.10
2019-06-15T17:35:30.618Z,1.20
2019-06-15T17:38:36.977Z,1.40
2019-06-15T17:41:40.236Z,1.70
2019-06-15T17:44:46.176Z,1.50
2019-06-15T17:47:49.703Z,1.23
2019-06-15T17:50:53.815Z,1.27
2019-06-15T17:53:57.742Z,1.37
2019-06-15T17:57:01.683Z,1.30
2019-06-15T18:00:07.287Z,1.50
2019-06-15T18:03:11.436Z,1.47
2019-06-15T18:06:17.359Z,1.40
2019-06-15T18:09:21.434Z,1.77
2019-06-15T18:12:28.609Z,1.40
2019-06-15T18:15:32.916Z,1.20
2019-06-15T18:18:37.242Z,1.50
2019-06-15T18:21:41.611Z,1.43
2019-06-15T18:24:46.638Z,1.60
2019-06-15T18:27:50.716Z,1.40
2019-06-15T18:30:54.916Z,1.50
2019-06-15T18:34:09.438Z,1.50
2019-06-15T18:37:04.864Z,1.40
2019-06-15T18:40:09.303Z,1.50
2019-06-15T18:43:13.218Z,1.70
2019-06-15T18:46:17.497Z,1.77
2019-06-15T18:49:22.180Z,1.63
2019-06-15T18:52:26.674Z,1.60
2019-06-15T18:55:31.078Z,1.60
2019-06-15T18:58:37.185Z,1.70
2019-06-15T19:01:40.524Z,1.60
2019-06-15T19:04:44.864Z,1.70
2019-06-15T19:07:49.091Z,1.77
2019-06-15T19:10:53.112Z,1.70
2019-06-15T19:13:57.032Z,1.57
2019-06-15T19:17:00.983Z,1.50
2019-06-15T19:20:06.107Z,1.90
2019-06-15T19:23:10.203Z,2.00
2019-06-15T19:26:16.479Z,1.87
2019-06-15T19:29:19.964Z,1.93
2019-06-15T19:32:26.222Z,1.77
2019-06-15T19:35:29.964Z,1.53
2019-06-15T19:38:36.159Z,1.80
2019-06-15T19:41:40.252Z,1.70
2019-06-15T19:44:44.539Z,1.90
2019-06-15T19:47:48.757Z,1.90
2019-06-15T19:50:52.621Z,1.87
2019-06-15T19:53:56.714Z,1.73
2019-06-15T19:57:00.589Z,1.87
2019-06-15T20:00:06.484Z,1.90
2019-06-15T20:03:10.798Z,2.00
2019-06-15T20:06:16.894Z,1.60
2019-06-15T20:09:21.090Z,1.80
2019-06-15T20:12:26.506Z,1.80
2019-06-15T20:15:30.601Z,1.87
2019-06-15T20:18:37.250Z,2.10
2019-06-15T20:21:40.787Z,1.93
2019-06-15T20:24:47.259Z,1.93
2019-06-15T20:27:50.512Z,2.03
2019-06-15T20:30:56.994Z,1.70
2019-06-15T20:34:00.645Z,2.23
2019-06-15T20:37:04.664Z,2.53
2019-06-15T20:40:10.380Z,2.50
2019-06-15T20:43:17.029Z,2.37
2019-06-15T20:46:20.634Z,2.37
2019-06-15T20:49:24.829Z,2.17
2019-06-15T20:52:28.692Z,1.80
2019-06-15T20:55:32.546Z,2.17
2019-06-15T20:58:37.418Z,2.30
2019-06-15T21:01:41.562Z,2.13
2019-06-15T21:04:45.423Z,2.33
2019-06-15T21:07:49.292Z,2.10
2019-06-15T21:10:53.439Z,2.37
2019-06-15T21:13:57.689Z,2.57
2019-06-15T21:17:01.689Z,2.60
2019-06-15T21:20:06.996Z,2.30
2019-06-15T21:23:10.853Z,2.17
2019-06-15T21:26:16.374Z,2.30
2019-06-15T21:29:20.820Z,2.30
2019-06-15T21:32:26.221Z,2.23
2019-06-15T21:35:43.008Z,2.30
2019-06-15T21:38:36.622Z,2.40
2019-06-15T21:41:40.751Z,2.50
2019-06-15T21:44:46.810Z,2.97
2019-06-15T21:47:50.188Z,2.87
2019-06-15T21:50:56.944Z,2.10
2019-06-15T21:54:00.633Z,2.53
2019-06-15T21:57:07.095Z,2.63
2019-06-15T22:00:17.204Z,2.70
2019-06-15T22:03:20.280Z,2.30
2019-06-15T22:06:26.276Z,2.37
2019-06-15T22:09:30.739Z,2.10
2019-06-15T22:12:36.544Z,2.40
2019-06-15T22:15:40.910Z,2.23
2019-06-15T22:18:47.401Z,2.70
2019-06-15T22:21:50.877Z,2.27
2019-06-15T22:24:56.035Z,2.40
2019-06-15T22:28:00.034Z,2.40
2019-06-15T22:31:06.751Z,2.40
2019-06-15T22:34:10.068Z,2.70
2019-06-15T22:37:17.200Z,2.80
2019-06-15T22:40:20.279Z,2.50
2019-06-15T22:43:24.215Z,2.60
2019-06-15T22:46:28.065Z,2.60
2019-06-15T22:49:31.951Z,2.73
2019-06-15T22:52:36.441Z,2.77
2019-06-15T22:55:40.912Z,2.30
2019-06-15T22:58:46.161Z,2.30
2019-06-15T23:01:50.584Z,2.60
2019-06-15T23:04:56.630Z,2.67
2019-06-15T23:08:01.270Z,2.50
2019-06-15T23:11:06.811Z,2.60
2019-06-15T23:14:10.857Z,2.77
2019-06-15T23:17:15.061Z,2.70
2019-06-15T23:20:19.313Z,2.63
2019-06-15T23:23:23.600Z,2.30
2019-06-15T23:26:27.524Z,2.60
2019-06-15T23:29:31.380Z,2.53
2019-06-15T23:32:35.565Z,2.80
2019-06-15T23:35:46.549Z,2.70
2019-06-15T23:38:50.457Z,2.63
2019-06-15T23:41:56.323Z,2.90
2019-06-15T23:45:00.196Z,2.63
2019-06-15T23:48:04.472Z,3.00
2019-06-15T23:51:08.305Z,3.20
2019-06-15T23:54:12.182Z,3.40
2019-06-15T23:57:16.074Z,3.17
